createdAt,value
2024-05-09T00:00:41.771Z,3.50
2024-05-09T00:03:28.918Z,3.60
2024-05-09T00:05:55.634Z,3.90
2024-05-09T00:08:23.378Z,3.00
2024-05-09T00:10:50.053Z,3.70
2024-05-09T00:13:16.672Z,4.00
2024-05-09T00:15:43.213Z,2.90
2024-05-09T00:18:09.998Z,2.80
2024-05-09T00:20:39.916Z,4.00
2024-05-09T00:23:09.897Z,3.20
2024-05-09T00:25:37.288Z,3.60
2024-05-09T00:28:04.370Z,3.70
2024-05-09T00:30:34.788Z,3.50
2024-05-09T00:33:05.751Z,3.30
2024-05-09T00:35:33.732Z,2.90
2024-05-09T00:38:00.838Z,3.40
2024-05-09T00:40:41.135Z,3.20
2024-05-09T00:43:11.113Z,3.10
2024-05-09T00:45:38.011Z,2.60
2024-05-09T00:48:05.855Z,3.10
2024-05-09T00:50:36.870Z,2.80
2024-05-09T00:55:34.178Z,3.70
2024-05-09T00:58:01.894Z,3.20
2024-05-09T01:00:35.996Z,3.20
2024-05-09T01:03:07.333Z,3.50
2024-05-09T01:05:34.668Z,3.40
2024-05-09T01:08:02.079Z,3.10
2024-05-09T01:13:03.403Z,2.70
2024-05-09T01:15:30.223Z,3.30
2024-05-09T01:17:58.332Z,2.50
2024-05-09T01:23:08.805Z,3.30
2024-05-09T01:25:35.620Z,3.70
2024-05-09T01:33:09.114Z,3.10
2024-05-09T01:35:38.047Z,3.90
2024-05-09T01:38:05.084Z,3.10
2024-05-09T01:40:37.590Z,3.90
2024-05-09T01:43:07.628Z,4.00
2024-05-09T01:45:34.492Z,3.60
2024-05-09T01:48:02.686Z,3.30
2024-05-09T01:50:38.146Z,2.90
2024-05-09T01:53:09.492Z,4.40
2024-05-09T01:55:36.489Z,3.40
2024-05-09T01:58:03.151Z,4.10
2024-05-09T02:00:38.178Z,3.90
2024-05-09T02:03:15.309Z,3.50
2024-05-09T02:08:16.610Z,4.20
2024-05-09T02:10:44.703Z,3.80
2024-05-09T02:13:12.596Z,3.40
2024-05-09T02:15:39.228Z,3.10
2024-05-09T02:18:07.583Z,3.10
2024-05-09T02:20:36.743Z,4.00
2024-05-09T02:23:05.541Z,3.10
2024-05-09T02:25:32.441Z,4.00
2024-05-09T02:27:59.339Z,3.70
2024-05-09T02:30:35.909Z,3.50
2024-05-09T02:33:07.774Z,3.60
2024-05-09T02:35:34.802Z,4.10
2024-05-09T02:38:01.516Z,3.70
2024-05-09T02:40:35.926Z,3.10
2024-05-09T02:43:06.425Z,3.50
2024-05-09T02:45:33.307Z,3.50
2024-05-09T02:48:00.545Z,4.00
2024-05-09T02:50:34.660Z,4.20
2024-05-09T02:53:09.360Z,3.60
2024-05-09T02:55:37.424Z,3.40
2024-05-09T02:58:06.173Z,3.10
2024-05-09T03:00:38.865Z,3.50
2024-05-09T03:03:13.370Z,2.10
2024-05-09T03:05:43.557Z,3.60
2024-05-09T03:08:10.736Z,3.10
2024-05-09T03:10:39.265Z,3.70
2024-05-09T03:13:07.584Z,3.90
2024-05-09T03:15:34.261Z,4.40
2024-05-09T03:18:01.480Z,4.50
2024-05-09T03:20:33.970Z,4.20
2024-05-09T03:23:04.136Z,3.90
2024-05-09T03:25:30.868Z,3.60
2024-05-09T03:27:57.493Z,4.40
2024-05-09T03:30:36.056Z,4.30
2024-05-09T03:33:14.652Z,4.60
2024-05-09T03:35:45.776Z,4.20
2024-05-09T03:40:47.114Z,4.10
2024-05-09T03:45:42.113Z,3.10
2024-05-09T03:48:09.022Z,4.10
2024-05-09T03:55:31.167Z,4.20
2024-05-09T03:57:57.940Z,4.40
2024-05-09T04:00:31.446Z,4.60
2024-05-09T04:03:06.267Z,3.90
2024-05-09T04:05:35.014Z,3.80
2024-05-09T04:08:01.906Z,3.80
2024-05-09T04:10:33.352Z,4.20
2024-05-09T04:13:02.436Z,4.50
2024-05-09T04:15:29.435Z,3.90
2024-05-09T04:17:56.399Z,4.00
2024-05-09T04:20:33.708Z,3.80
2024-05-09T04:23:14.642Z,4.60
2024-05-09T04:25:43.329Z,4.30
2024-05-09T04:28:09.951Z,4.00
2024-05-09T04:33:13.414Z,4.30
2024-05-09T04:38:08.389Z,4.30
2024-05-09T04:40:36.842Z,4.50
2024-05-09T04:43:05.502Z,4.50
2024-05-09T04:45:32.387Z,3.40
2024-05-09T04:47:59.185Z,3.50
2024-05-09T04:50:35.181Z,4.00
2024-05-09T04:53:05.839Z,4.40
2024-05-09T04:55:35.455Z,3.70
2024-05-09T04:58:02.010Z,3.70
2024-05-09T05:00:35.303Z,3.70
2024-05-09T05:03:06.052Z,3.40
2024-05-09T05:05:33.683Z,4.70
2024-05-09T05:08:00.322Z,3.90
2024-05-09T05:10:33.794Z,4.10
2024-05-09T05:13:16.059Z,4.00
2024-05-09T05:15:43.312Z,2.80
2024-05-09T05:18:10.076Z,4.00
2024-05-09T05:20:36.777Z,3.20
2024-05-09T05:23:09.839Z,3.70
2024-05-09T05:25:36.740Z,3.30
2024-05-09T05:30:34.507Z,2.90
2024-05-09T05:33:01.957Z,3.70
2024-05-09T05:35:28.918Z,3.20
2024-05-09T05:40:28.659Z,4.10
2024-05-09T05:43:04.007Z,3.70
2024-05-09T05:45:30.691Z,3.40
2024-05-09T05:47:57.581Z,3.60
2024-05-09T05:50:32.465Z,2.80
2024-05-09T05:53:02.814Z,3.30
2024-05-09T05:55:29.512Z,2.90
2024-05-09T05:57:56.453Z,2.40
2024-05-09T06:00:29.969Z,3.20
2024-05-09T06:03:04.645Z,3.10
2024-05-09T06:05:31.611Z,3.40
2024-05-09T06:07:58.772Z,2.80
2024-05-09T06:10:37.570Z,3.00
2024-05-09T06:13:11.811Z,2.90
2024-05-09T06:15:40.635Z,2.80
2024-05-09T06:18:08.874Z,3.40
2024-05-09T06:20:38.014Z,2.80
2024-05-09T06:23:06.374Z,2.70
2024-05-09T06:25:34.253Z,2.50
2024-05-09T06:28:01.578Z,2.20
2024-05-09T06:30:35.254Z,2.80
2024-05-09T06:33:08.002Z,3.10
2024-05-09T06:35:35.269Z,2.70
2024-05-09T06:38:02.553Z,2.60
2024-05-09T06:40:36.878Z,2.20
2024-05-09T06:43:16.873Z,2.80
2024-05-09T06:45:49.654Z,2.90
2024-05-09T06:48:20.715Z,2.70
2024-05-09T06:50:48.407Z,2.40
2024-05-09T06:53:17.069Z,2.40
2024-05-09T06:55:43.904Z,2.50
2024-05-09T06:58:10.634Z,2.90
2024-05-09T07:00:40.351Z,2.40
2024-05-09T07:03:15.377Z,2.20
2024-05-09T07:08:13.355Z,2.00
2024-05-09T07:10:40.284Z,2.10
2024-05-09T07:13:11.793Z,2.10
2024-05-09T07:15:39.925Z,2.50
2024-05-09T07:18:11.068Z,2.50
2024-05-09T07:20:39.370Z,2.00
2024-05-09T07:23:09.872Z,2.10
2024-05-09T07:25:37.396Z,1.70
2024-05-09T07:28:04.598Z,2.50
2024-05-09T07:30:34.296Z,2.20
2024-05-09T07:33:03.131Z,1.70
2024-05-09T07:35:30.776Z,1.90
2024-05-09T07:37:57.974Z,2.00
2024-05-09T07:40:32.699Z,2.00
2024-05-09T07:43:05.878Z,1.80
2024-05-09T07:52:23.312Z,2.20
2024-05-09T07:53:39.293Z,3.10
2024-05-09T07:56:10.257Z,2.60
2024-05-09T07:58:38.445Z,1.60
2024-05-09T08:01:05.461Z,2.00
2024-05-09T08:03:34.335Z,2.10
2024-05-09T08:06:01.234Z,2.20
2024-05-09T08:08:27.934Z,3.10
2024-05-09T08:10:54.718Z,2.10
2024-05-09T08:13:21.454Z,2.20
2024-05-09T08:15:48.793Z,2.30
2024-05-09T08:18:15.575Z,2.80
2024-05-09T08:20:42.374Z,1.90
2024-05-09T08:23:10.427Z,2.40
2024-05-09T08:25:37.934Z,2.40
2024-05-09T08:28:04.914Z,2.40
2024-05-09T08:30:36.891Z,2.50
2024-05-09T08:33:06.296Z,3.10
2024-05-09T08:35:34.142Z,2.60
2024-05-09T08:38:02.753Z,2.90
2024-05-09T08:40:35.822Z,3.10
2024-05-09T08:43:11.897Z,3.10
2024-05-09T08:45:44.772Z,3.00
2024-05-09T08:48:13.518Z,3.30
2024-05-09T08:50:41.043Z,3.20
2024-05-09T08:53:08.199Z,3.30
2024-05-09T08:55:38.180Z,3.30
2024-05-09T08:58:11.804Z,3.20
2024-05-09T09:00:41.304Z,3.30
2024-05-09T09:03:10.868Z,3.40
2024-05-09T09:05:40.191Z,2.70
2024-05-09T09:08:07.833Z,3.40
2024-05-09T09:10:34.708Z,3.40
2024-05-09T09:13:03.585Z,3.40
2024-05-09T09:15:30.413Z,3.50
2024-05-09T09:17:58.571Z,3.50
2024-05-09T09:20:33.864Z,3.50
2024-05-09T09:23:04.257Z,3.20
2024-05-09T09:25:31.199Z,3.20
2024-05-09T09:27:58.528Z,1.00
2024-05-09T09:30:36.284Z,3.80
2024-05-09T09:33:05.968Z,3.90
2024-05-09T09:35:35.317Z,3.70
2024-05-09T09:38:03.744Z,3.90
2024-05-09T09:40:35.876Z,2.80
2024-05-09T09:43:13.007Z,3.80
2024-05-09T09:45:42.585Z,3.20
2024-05-09T09:48:09.944Z,3.30
2024-05-09T09:53:06.416Z,3.90
2024-05-09T09:55:34.143Z,4.50
2024-05-09T09:58:00.996Z,3.40
2024-05-09T10:00:32.965Z,3.30
2024-05-09T10:03:01.714Z,3.30
2024-05-09T10:05:29.256Z,3.40
2024-05-09T10:07:57.847Z,2.70
2024-05-09T10:10:31.951Z,3.30
2024-05-09T10:13:04.057Z,2.90
2024-05-09T10:15:44.930Z,4.20
2024-05-09T10:18:11.734Z,3.20
2024-05-09T10:20:39.784Z,2.80
2024-05-09T10:23:23.001Z,3.40
2024-05-09T10:26:00.145Z,3.00
2024-05-09T10:28:32.934Z,3.50
2024-05-09T10:31:07.587Z,3.50
2024-05-09T10:33:48.711Z,2.80
2024-05-09T10:36:24.462Z,2.90
2024-05-09T10:38:53.277Z,3.20
2024-05-09T10:41:21.110Z,3.50
2024-05-09T10:43:48.533Z,3.20
2024-05-09T10:46:15.706Z,2.80
2024-05-09T10:48:43.208Z,2.40
2024-05-09T10:51:10.263Z,2.30
2024-05-09T10:53:44.241Z,3.20
2024-05-09T10:56:13.694Z,3.20
2024-05-09T10:58:40.601Z,3.40
2024-05-09T11:01:12.362Z,2.80
2024-05-09T11:03:39.590Z,2.80
2024-05-09T11:06:08.885Z,2.80
2024-05-09T11:08:37.083Z,3.20
2024-05-09T11:11:14.231Z,3.50
2024-05-09T11:13:40.920Z,3.50
2024-05-09T11:16:27.936Z,2.70
2024-05-09T11:18:59.161Z,2.80
2024-05-09T11:21:29.334Z,3.00
2024-05-09T11:23:56.504Z,2.80
2024-05-09T11:26:24.931Z,2.90
2024-05-09T11:28:54.715Z,2.70
2024-05-09T11:31:21.715Z,3.10
2024-05-09T11:33:48.914Z,3.00
2024-05-09T11:36:15.962Z,2.40
2024-05-09T11:38:42.638Z,2.90
2024-05-09T11:41:16.354Z,2.80
2024-05-09T11:43:43.760Z,3.10
2024-05-09T11:46:10.531Z,2.90
2024-05-09T11:48:38.530Z,3.00
2024-05-09T11:51:05.299Z,5.10
2024-05-09T11:53:31.934Z,3.20
2024-05-09T11:55:58.629Z,3.10
2024-05-09T11:58:25.277Z,2.90
2024-05-09T12:00:52.172Z,2.30
2024-05-09T12:03:19.982Z,2.80
2024-05-09T12:05:46.841Z,2.40
2024-05-09T12:08:15.441Z,3.10
2024-05-09T12:10:46.040Z,2.60
2024-05-09T12:13:13.013Z,2.80
2024-05-09T12:15:39.708Z,2.90
2024-05-09T12:18:06.636Z,3.00
2024-05-09T12:20:37.492Z,2.60
2024-05-09T12:23:08.893Z,2.50
2024-05-09T12:25:38.049Z,2.50
2024-05-09T12:28:05.356Z,2.70
2024-05-09T12:30:37.188Z,2.90
2024-05-09T12:33:11.646Z,2.60
2024-05-09T12:35:39.691Z,2.60
2024-05-09T12:38:06.326Z,9.80
2024-05-09T12:40:37.073Z,2.70
2024-05-09T12:43:06.750Z,3.30
2024-05-09T12:45:33.697Z,3.20
2024-05-09T12:48:00.720Z,3.10
2024-05-09T12:50:32.563Z,3.50
2024-05-09T12:53:01.687Z,2.90
2024-05-09T12:55:33.501Z,2.90
2024-05-09T12:58:06.742Z,2.50
2024-05-09T13:00:34.382Z,3.70
2024-05-09T13:03:01.668Z,2.50
2024-05-09T13:05:29.510Z,3.10
2024-05-09T13:07:57.206Z,3.00
2024-05-09T13:10:31.046Z,2.90
2024-05-09T13:13:00.671Z,3.30
2024-05-09T13:15:29.050Z,4.30
2024-05-09T13:18:00.346Z,2.70
2024-05-09T13:20:33.522Z,2.40
2024-05-09T13:23:05.902Z,2.80
2024-05-09T13:25:34.031Z,2.40
2024-05-09T13:28:00.930Z,2.50
2024-05-09T13:30:35.673Z,2.30
2024-05-09T13:33:08.348Z,3.30
2024-05-09T13:35:35.976Z,3.20
2024-05-09T13:38:03.944Z,2.40
2024-05-09T13:40:34.535Z,2.30
2024-05-09T13:43:06.084Z,2.60
2024-05-09T13:45:33.615Z,2.50
2024-05-09T13:48:01.502Z,2.60
2024-05-09T13:50:34.301Z,2.30
2024-05-09T13:53:04.271Z,2.70
2024-05-09T13:55:30.895Z,2.60
2024-05-09T13:57:57.670Z,2.60
2024-05-09T14:02:54.182Z,2.20
2024-05-09T14:05:21.590Z,2.40
2024-05-09T14:07:48.492Z,2.80
2024-05-09T14:10:22.718Z,2.90
2024-05-09T14:12:52.763Z,4.00
2024-05-09T14:15:19.426Z,2.90
2024-05-09T14:17:46.774Z,2.50
2024-05-09T14:20:16.696Z,2.50
2024-05-09T14:22:50.494Z,2.60
2024-05-09T14:25:17.444Z,2.80
2024-05-09T14:27:44.368Z,3.00
2024-05-09T14:30:18.242Z,2.90
2024-05-09T14:32:52.636Z,3.00
2024-05-09T14:35:19.629Z,3.30
2024-05-09T14:37:46.337Z,3.20
2024-05-09T14:40:26.450Z,2.30
2024-05-09T14:43:02.916Z,2.50
2024-05-09T14:45:36.383Z,2.50
2024-05-09T14:48:04.772Z,2.30
2024-05-09T14:50:36.893Z,2.20
2024-05-09T14:53:09.322Z,2.30
2024-05-09T14:55:38.280Z,2.10
2024-05-09T14:58:09.360Z,2.20
2024-05-09T15:00:41.499Z,2.30
2024-05-09T15:03:11.607Z,1.80
2024-05-09T15:05:38.435Z,2.40
2024-05-09T15:08:06.627Z,2.50
2024-05-09T15:10:35.898Z,2.30
2024-05-09T15:13:04.918Z,2.70
2024-05-09T15:15:31.993Z,2.60
2024-05-09T15:18:00.354Z,2.60
2024-05-09T15:20:33.931Z,2.90
2024-05-09T15:25:32.289Z,2.40
2024-05-09T15:27:59.077Z,2.80
2024-05-09T15:32:55.542Z,2.60
2024-05-09T15:35:22.194Z,2.30
2024-05-09T15:37:48.818Z,2.50
2024-05-09T15:40:26.009Z,2.50
2024-05-09T15:43:01.863Z,2.70
2024-05-09T15:45:28.649Z,2.50
2024-05-09T15:47:56.190Z,2.90
2024-05-09T15:50:32.713Z,2.00
2024-05-09T15:53:05.184Z,2.50
2024-05-09T15:55:32.867Z,2.90
2024-05-09T15:58:00.651Z,1.80
2024-05-09T16:00:36.062Z,2.80
2024-05-09T16:03:06.528Z,2.20
2024-05-09T16:05:33.488Z,2.30
2024-05-09T16:08:00.484Z,2.50
2024-05-09T16:10:32.551Z,2.40
2024-05-09T16:13:02.005Z,2.20
2024-05-09T16:15:29.234Z,2.20
2024-05-09T16:17:55.992Z,2.40
2024-05-09T16:22:52.853Z,1.90
2024-05-09T16:25:19.618Z,2.70
2024-05-09T16:27:46.869Z,2.30
2024-05-09T16:30:21.197Z,2.60
2024-05-09T16:32:55.239Z,3.50
2024-05-09T16:35:21.952Z,2.50
2024-05-09T16:37:48.933Z,2.60
2024-05-09T16:40:24.932Z,2.40
2024-05-09T16:43:02.628Z,2.30
2024-05-09T16:45:29.321Z,2.00
2024-05-09T16:47:56.350Z,2.30
2024-05-09T16:50:29.269Z,2.50
2024-05-09T16:52:59.495Z,2.40
2024-05-09T16:55:26.228Z,3.10
2024-05-09T16:57:53.703Z,2.90
2024-05-09T17:00:31.136Z,2.80
2024-05-09T17:03:06.814Z,2.70
2024-05-09T17:05:35.408Z,2.40
2024-05-09T17:08:02.785Z,2.00
2024-05-09T17:10:33.347Z,2.20
2024-05-09T17:13:03.659Z,2.60
2024-05-09T17:15:31.612Z,2.50
2024-05-09T17:17:58.438Z,3.10
2024-05-09T17:20:32.560Z,2.70
2024-05-09T17:23:03.754Z,2.50
2024-05-09T17:25:48.919Z,2.50
2024-05-09T17:28:32.931Z,2.10
2024-05-09T17:31:18.891Z,2.90
2024-05-09T17:33:54.020Z,5.00
2024-05-09T17:36:20.876Z,7.60
2024-05-09T17:38:47.497Z,10.90
2024-05-09T17:41:14.106Z,9.90
2024-05-09T17:43:41.370Z,7.10
2024-05-09T17:46:08.166Z,5.50
2024-05-09T17:48:35.070Z,4.00
2024-05-09T17:51:01.754Z,3.30
2024-05-09T17:53:28.413Z,2.90
2024-05-09T17:55:55.814Z,2.30
2024-05-09T17:58:22.499Z,2.30
2024-05-09T18:00:49.275Z,2.50
2024-05-09T18:03:16.017Z,2.70
2024-05-09T18:05:44.572Z,2.30
2024-05-09T18:08:12.174Z,2.40
2024-05-09T18:10:42.362Z,2.30
2024-05-09T18:13:10.810Z,2.30
2024-05-09T18:15:39.718Z,2.70
2024-05-09T18:18:07.568Z,2.60
2024-05-09T18:20:42.376Z,2.50
2024-05-09T18:23:17.622Z,4.00
2024-05-09T18:25:46.586Z,7.40
2024-05-09T18:28:14.292Z,9.60
2024-05-09T18:30:41.348Z,6.00
2024-05-09T18:33:09.526Z,4.80
2024-05-09T18:35:36.919Z,4.20
2024-05-09T18:38:04.313Z,3.90
2024-05-09T18:40:34.938Z,2.60
2024-05-09T18:43:06.269Z,3.30
2024-05-09T18:45:35.111Z,2.90
2024-05-09T18:48:04.017Z,2.10
2024-05-09T18:50:35.806Z,3.20
2024-05-09T18:53:05.967Z,3.50
2024-05-09T18:55:37.924Z,3.40
2024-05-09T18:58:06.457Z,3.50
2024-05-09T19:00:37.437Z,4.50
2024-05-09T19:03:11.559Z,3.00
2024-05-09T19:05:44.397Z,4.10
2024-05-09T19:08:13.715Z,3.80
2024-05-09T19:10:40.716Z,4.30
2024-05-09T19:13:12.063Z,7.80
2024-05-09T19:15:50.054Z,13.00
2024-05-09T19:18:17.075Z,15.10
2024-05-09T19:20:44.357Z,12.80
2024-05-09T19:23:11.901Z,10.50
2024-05-09T19:25:39.070Z,11.40
2024-05-09T19:28:08.221Z,10.40
2024-05-09T19:30:40.212Z,5.70
2024-05-09T19:33:12.355Z,4.10
2024-05-09T19:36:02.604Z,4.10
2024-05-09T19:38:30.638Z,5.20
2024-05-09T19:40:58.384Z,6.00
2024-05-09T19:43:27.271Z,6.80
2024-05-09T19:45:55.377Z,4.90
2024-05-09T19:48:23.322Z,5.20
2024-05-09T19:50:53.136Z,3.90
2024-05-09T19:53:22.539Z,4.50
2024-05-09T19:55:50.375Z,3.70
2024-05-09T19:58:18.540Z,4.00
2024-05-09T20:00:46.403Z,3.40
2024-05-09T20:03:15.339Z,4.90
2024-05-09T20:05:49.217Z,4.90
2024-05-09T20:08:17.309Z,3.90
2024-05-09T20:10:45.202Z,6.20
2024-05-09T20:13:13.646Z,9.40
2024-05-09T20:15:43.722Z,9.40
2024-05-09T20:18:11.866Z,6.00
2024-05-09T20:20:42.723Z,3.20
2024-05-09T20:23:12.961Z,5.50
2024-05-09T20:28:11.249Z,4.60
2024-05-09T20:30:42.993Z,4.40
2024-05-09T20:33:32.303Z,7.00
2024-05-09T20:38:30.955Z,4.10
2024-05-09T20:40:58.962Z,2.80
2024-05-09T20:43:30.058Z,3.40
2024-05-09T20:46:04.078Z,3.10
2024-05-09T20:50:59.486Z,3.30
2024-05-09T20:53:27.136Z,4.70
2024-05-09T20:55:54.791Z,4.00
2024-05-09T20:58:22.700Z,3.70
2024-05-09T21:00:54.722Z,3.60
2024-05-09T21:03:35.268Z,4.90
2024-05-09T21:06:03.142Z,5.40
2024-05-09T21:08:30.816Z,4.50
2024-05-09T21:10:58.922Z,4.20
2024-05-09T21:13:26.784Z,4.40
2024-05-09T21:15:54.725Z,3.80
2024-05-09T21:18:22.570Z,3.80
2024-05-09T21:20:50.297Z,4.20
2024-05-09T21:23:18.141Z,3.90
2024-05-09T21:25:45.754Z,5.00
2024-05-09T21:28:19.411Z,4.40
2024-05-09T21:30:50.768Z,4.60
2024-05-09T21:33:29.240Z,3.80
2024-05-09T21:36:04.728Z,2.30
2024-05-09T21:38:32.366Z,4.70
2024-05-09T21:41:00.077Z,4.00
2024-05-09T21:43:29.816Z,2.60
2024-05-09T21:45:57.549Z,3.00
2024-05-09T21:48:25.287Z,3.20
2024-05-09T21:50:52.989Z,2.90
2024-05-09T21:53:20.671Z,3.10
2024-05-09T21:55:48.404Z,2.90
2024-05-09T21:58:16.274Z,3.00
2024-05-09T22:00:46.083Z,3.00
2024-05-09T22:03:14.273Z,3.00
2024-05-09T22:05:44.297Z,2.70
2024-05-09T22:08:12.893Z,4.00
2024-05-09T22:10:40.627Z,3.70
2024-05-09T22:13:08.805Z,3.80
2024-05-09T22:15:39.443Z,3.00
2024-05-09T22:18:10.231Z,2.70
2024-05-09T22:20:46.672Z,3.70
2024-05-09T22:23:15.588Z,3.30
2024-05-09T22:25:43.413Z,3.80
2024-05-09T22:28:14.143Z,3.70
2024-05-09T22:30:43.663Z,4.50
2024-05-09T22:33:12.339Z,6.30
2024-05-09T22:35:41.866Z,5.80
2024-05-09T22:38:09.724Z,4.20
2024-05-09T22:40:45.715Z,4.80
2024-05-09T22:43:22.627Z,9.80
2024-05-09T22:45:54.189Z,9.60
2024-05-09T22:48:24.596Z,5.80
2024-05-09T22:50:53.371Z,5.90
2024-05-09T22:53:23.493Z,8.10
2024-05-09T22:55:51.363Z,4.80
2024-05-09T22:58:19.234Z,4.60
2024-05-09T23:00:47.687Z,3.10
2024-05-09T23:05:44.505Z,3.10
2024-05-09T23:08:12.156Z,3.50
2024-05-09T23:10:39.905Z,3.20
2024-05-09T23:13:08.499Z,3.70
2024-05-09T23:15:39.718Z,3.20
2024-05-09T23:18:07.858Z,3.00
2024-05-09T23:20:38.944Z,3.50
2024-05-09T23:23:08.766Z,2.80
2024-05-09T23:25:37.164Z,3.60
2024-05-09T23:28:05.369Z,3.50
2024-05-09T23:30:38.191Z,3.50
2024-05-09T23:33:12.957Z,10.20
2024-05-09T23:35:43.041Z,13.80
2024-05-09T23:38:10.736Z,12.70
2024-05-09T23:40:40.823Z,7.10
2024-05-09T23:43:11.600Z,3.90
2024-05-09T23:45:40.663Z,3.00
2024-05-09T23:48:09.286Z,5.90
2024-05-09T23:50:39.028Z,6.20
2024-05-09T23:53:09.501Z,7.60
2024-05-09T23:55:38.226Z,9.20
2024-05-09T23:58:06.835Z,5.10
